Aérodrome :
LOGIN :

S'inscrire | Disclaimer

   EN    FR    IT 

 










Légende :    VFR   VFR Marginal   IFR   IFR Intensif   IFR Très Intensif
Visi : 
Plafond : 
>= 8 km
>= 3000ft
5 à 8 km
1000 à 3000 ft
1500m à 5 km
500 à 1000 ft
800 à 1500m
200 à 500 ft
< 800m
< 200 ft
Symboles :   Orages  Brouillard  Fortes neiges  Fortes précipitations  Vent > 20 kt
SIGMETs :   Divers  Orages  Givrage  Turbulence  Onde Orograph.  Cendres Volcan.






- Altitude de l'aérodrome : 13 ft
- Code IATA : OST


EBOS - Oostend bruges Int.

DERNIER METAR :
  • 281850Z 04016G26KT CAVOK 15/09 Q1031 NOSIG

METARs EXPIRÉS :
  • 281820Z 04016KT CAVOK 15/09 Q1031 TEMPO 04017G27KT
  • 281750Z 04018KT CAVOK 15/09 Q1031 TEMPO 04017G27KT
  • 281720Z 04017KT CAVOK 16/09 Q1031 TEMPO 04017G27KT
  • 281650Z 04018KT CAVOK 16/09 Q1031 TEMPO 04015G28KT
  • 281620Z 04016KT CAVOK 16/09 Q1032 NOSIG

TAF TAF EBOS
Valide du 28 à 18h jusqu'au 30 à 00h UTC


281710Z 2818/2924 04014KT CAVOK



MET'MAP, la Météo Aéronautique d'un coup d'oeil ! - Copyright ORBIFLY Décembre 2007 - Disclaimer

ORBIFLY MET'MAP TEAM :

Programmation & Développement : Alexandra Zaïnal
Sur une idée originale de : Baudouin d'Aumeries
Assistance à la programmation : Marc-Olivier Méhu
Soutien technique & logistique : Manuel Goepfert

Contact : metmap@orbifly.com




SOURCES & CREDITS :

   NOAA